Time;durP1;ratioP1;P1;durP2;ratioP2;P2;SDS_P1;SDS_P2;PMS_P1;PMS_P2;Temp;Humidity;BMP_temperature;BMP_pressure;BME280_temperature;BME280_humidity;BME280_pressure;Samples;Min_cycle;Max_cycle;Signal;HPM_P1;HPM_P2
2023/05/10 04:22:33;;;;;;;12.05;3.85;;;;;;;12.47;100.00;99744.19;5089403;28;20393;-61
2023/05/10 04:24:59;;;;;;;8.98;4.60;;;;;;;12.50;100.00;99744.59;5089598;28;20040;-59
2023/05/10 04:27:24;;;;;;;11.23;4.25;;;;;;;12.58;100.00;99754.28;5089131;28;20047;-61
2023/05/10 04:29:50;;;;;;;9.73;4.30;;;;;;;12.61;100.00;99745.06;5088230;28;20477;-58
2023/05/10 04:32:17;;;;;;;5.95;3.35;;;;;;;12.63;100.00;99748.34;5089307;28;20043;-60
2023/05/10 04:34:43;;;;;;;8.30;3.83;;;;;;;12.62;100.00;99754.72;5089394;28;20511;-58
2023/05/10 04:37:08;;;;;;;5.78;3.47;;;;;;;12.64;100.00;99750.81;5088968;28;20076;-60
2023/05/10 04:39:35;;;;;;;8.45;3.30;;;;;;;12.67;100.00;99747.78;5089311;28;20127;-61
2023/05/10 04:42:02;;;;;;;8.68;3.60;;;;;;;12.70;100.00;99750.03;5089229;28;20074;-59
2023/05/10 04:44:28;;;;;;;5.20;3.50;;;;;;;12.74;100.00;99751.28;5089134;28;20413;-61
2023/05/10 04:46:53;;;;;;;8.73;3.90;;;;;;;12.77;100.00;99750.88;5097023;28;20039;-60
2023/05/10 04:49:19;;;;;;;5.70;3.17;;;;;;;12.81;100.00;99751.31;5088811;28;20040;-58
2023/05/10 04:51:45;;;;;;;9.60;4.00;;;;;;;12.84;100.00;99755.44;5091867;28;20040;-60
2023/05/10 04:54:10;;;;;;;8.25;3.50;;;;;;;12.83;100.00;99756.47;5088852;28;20032;-59
2023/05/10 04:56:35;;;;;;;5.80;3.42;;;;;;;12.93;100.00;99755.06;5088635;28;20063;-60
2023/05/10 04:59:01;;;;;;;9.07;3.60;;;;;;;12.92;100.00;99760.63;5088197;28;20048;-60
2023/05/10 05:01:26;;;;;;;6.35;3.15;;;;;;;12.95;100.00;99755.69;5091172;28;20088;-62
2023/05/10 05:03:52;;;;;;;5.05;3.05;;;;;;;13.00;100.00;99757.75;5107838;28;20461;-63
2023/05/10 05:06:18;;;;;;;5.70;3.33;;;;;;;12.99;100.00;99756.13;5109010;28;20044;-62
2023/05/10 05:08:43;;;;;;;7.32;3.63;;;;;;;12.98;100.00;99751.81;5108766;28;20036;-62
2023/05/10 05:11:09;;;;;;;8.50;3.50;;;;;;;13.00;100.00;99749.75;5108964;28;20119;-59
2023/05/10 05:13:34;;;;;;;5.32;3.10;;;;;;;13.09;100.00;99755.72;5108906;28;20050;-60
2023/05/10 05:16:02;;;;;;;4.40;2.97;;;;;;;13.08;100.00;99756.75;5108838;28;20036;-58
2023/05/10 05:18:28;;;;;;;8.05;4.10;;;;;;;13.07;100.00;99776.50;5108451;28;20038;-58
2023/05/10 05:20:53;;;;;;;5.93;3.15;;;;;;;13.11;100.00;99772.41;5108713;28;20489;-58
2023/05/10 05:23:20;;;;;;;5.70;3.53;;;;;;;13.09;100.00;99767.25;5108783;28;20120;-62
2023/05/10 05:25:46;;;;;;;6.85;3.35;;;;;;;13.06;100.00;99775.69;5108685;28;20069;-59
2023/05/10 05:28:11;;;;;;;10.15;3.47;;;;;;;13.03;100.00;99771.53;5108291;28;20485;-58
2023/05/10 05:30:37;;;;;;;6.93;3.70;;;;;;;13.14;100.00;99774.66;5108535;28;20114;-60
2023/05/10 05:33:02;;;;;;;6.78;3.75;;;;;;;13.10;100.00;99771.56;5099999;28;20132;-63
2023/05/10 05:35:28;;;;;;;7.25;4.05;;;;;;;13.09;100.00;99780.59;5088152;28;20420;-60
2023/05/10 05:37:53;;;;;;;9.55;4.35;;;;;;;13.17;100.00;99782.28;5073067;28;20094;-61
2023/05/10 05:40:20;;;;;;;6.28;2.90;;;;;;;13.22;100.00;99779.84;5074687;28;20432;-62
2023/05/10 05:42:45;;;;;;;13.95;3.95;;;;;;;13.27;100.00;99774.75;5074611;28;20048;-63
2023/05/10 05:45:12;;;;;;;7.82;3.85;;;;;;;13.25;100.00;99776.81;5074381;28;20028;-62
2023/05/10 05:47:39;;;;;;;6.82;2.85;;;;;;;13.36;100.00;99781.53;5074211;28;20040;-60
2023/05/10 05:50:05;;;;;;;6.25;3.63;;;;;;;13.38;100.00;99779.50;5074469;28;20587;-60
2023/05/10 05:52:30;;;;;;;8.05;3.70;;;;;;;13.45;100.00;99780.34;5074393;28;20575;-60
2023/05/10 05:54:56;;;;;;;6.07;3.33;;;;;;;13.45;100.00;99790.22;5074429;28;20028;-59
2023/05/10 05:57:21;;;;;;;7.28;3.45;;;;;;;13.44;100.00;99785.91;5076154;28;20405;-60
2023/05/10 05:59:47;;;;;;;4.25;2.50;;;;;;;13.51;100.00;99792.09;5094448;28;20036;-60
2023/05/10 06:02:12;;;;;;;4.53;2.70;;;;;;;13.45;100.00;99779.53;5094480;28;20036;-61
2023/05/10 06:04:38;;;;;;;4.00;2.33;;;;;;;13.56;100.00;99790.44;5094367;28;20040;-62
2023/05/10 06:07:03;;;;;;;4.85;2.85;;;;;;;13.58;100.00;99784.88;5094066;28;20040;-60
2023/05/10 06:09:29;;;;;;;4.32;2.40;;;;;;;13.57;100.00;99805.47;5094307;28;20411;-63
2023/05/10 06:11:54;;;;;;;3.70;2.28;;;;;;;13.65;100.00;99812.47;5094253;28;20090;-60
2023/05/10 06:14:20;;;;;;;5.63;2.22;;;;;;;13.61;100.00;99813.91;5094128;28;20039;-61
2023/05/10 06:16:46;;;;;;;3.17;2.15;;;;;;;13.66;100.00;99811.44;5093816;28;20036;-61
2023/05/10 06:19:11;;;;;;;4.75;2.20;;;;;;;13.73;100.00;99824.84;5093504;28;20485;-61
2023/05/10 06:21:37;;;;;;;4.03;2.50;;;;;;;13.74;100.00;99818.44;5093996;28;20508;-60
2023/05/10 06:24:03;;;;;;;5.57;2.83;;;;;;;13.75;100.00;99818.25;5094041;28;20038;-59
2023/05/10 06:26:28;;;;;;;7.88;3.53;;;;;;;13.77;100.00;99823.41;5093895;28;20032;-61
2023/05/10 06:28:54;;;;;;;5.57;3.03;;;;;;;13.82;100.00;99818.25;5078919;28;20111;-61
2023/05/10 06:31:19;;;;;;;5.28;3.05;;;;;;;13.83;100.00;99826.09;5073304;28;20056;-59
2023/05/10 06:33:44;;;;;;;6.22;3.20;;;;;;;13.73;100.00;99803.44;5073634;28;20055;-60
2023/05/10 06:36:10;;;;;;;4.85;2.67;;;;;;;13.82;100.00;99823.59;5073497;28;20041;-62
2023/05/10 06:38:35;;;;;;;4.82;2.75;;;;;;;13.81;100.00;99827.31;5071922;28;20105;-60
2023/05/10 06:41:01;;;;;;;6.43;3.17;;;;;;;13.79;100.00;99829.38;5073531;28;20132;-59
2023/05/10 06:43:28;;;;;;;5.18;2.60;;;;;;;13.82;100.00;99823.59;5073031;28;20040;-58
2023/05/10 06:45:53;;;;;;;3.20;2.15;;;;;;;13.89;100.00;99824.47;5072680;28;20028;-58
2023/05/10 06:48:19;;;;;;;2.85;2.13;;;;;;;13.97;100.00;99826.94;5072929;28;20049;-62
2023/05/10 06:50:44;;;;;;;4.43;2.33;;;;;;;13.98;100.00;99823.22;5072020;28;20040;-62
2023/05/10 06:53:10;;;;;;;4.57;2.42;;;;;;;13.92;100.00;99829.41;5073251;28;20127;-58
2023/05/10 06:55:35;;;;;;;3.67;2.42;;;;;;;13.89;100.00;99837.00;5073099;28;20083;-60
2023/05/10 06:58:01;;;;;;;3.13;2.00;;;;;;;13.93;100.00;99838.25;5072735;28;20071;-61
2023/05/10 07:00:27;;;;;;;4.25;2.40;;;;;;;14.02;100.00;99834.34;5071842;28;20041;-59
2023/05/10 07:02:52;;;;;;;3.60;2.10;;;;;;;14.09;100.00;99835.19;5073010;28;20097;-60
2023/05/10 07:05:18;;;;;;;4.13;2.00;;;;;;;14.10;100.00;99828.78;5072982;28;20060;-59
2023/05/10 07:07:43;;;;;;;4.43;2.22;;;;;;;14.20;100.00;99826.50;5072641;28;20511;-59
2023/05/10 07:10:09;;;;;;;4.20;1.88;;;;;;;14.36;100.00;99839.50;5072915;28;20123;-61
2023/05/10 07:12:35;;;;;;;2.40;1.50;;;;;;;14.38;100.00;99828.56;5072741;28;20064;-62
2023/05/10 07:15:00;;;;;;;1.92;1.50;;;;;;;14.44;100.00;99838.44;5072800;28;20104;-59
2023/05/10 07:17:25;;;;;;;3.42;2.03;;;;;;;14.45;100.00;99840.09;5072381;28;20051;-59
2023/05/10 07:19:51;;;;;;;3.38;1.52;;;;;;;14.46;100.00;99839.09;5071431;28;20075;-61
2023/05/10 07:22:17;;;;;;;2.85;1.80;;;;;;;14.49;100.00;99835.19;5072460;28;20084;-59
2023/05/10 07:24:43;;;;;;;2.67;1.83;;;;;;;14.48;100.00;99846.94;5072557;28;20028;-61
2023/05/10 07:27:08;;;;;;;3.08;1.55;;;;;;;14.52;100.00;99837.44;5072182;28;20123;-60
2023/05/10 07:29:34;;;;;;;2.47;1.60;;;;;;;14.45;100.00;99840.09;5072415;28;20036;-61
2023/05/10 07:32:00;;;;;;;4.07;1.67;;;;;;;14.44;100.00;99843.00;5072370;28;20079;-57
2023/05/10 07:34:25;;;;;;;3.78;1.70;;;;;;;14.42;100.00;99843.19;5072512;28;20063;-60
2023/05/10 07:36:51;;;;;;;2.85;1.50;;;;;;;14.44;100.00;99853.72;5072092;28;20474;-59
2023/05/10 07:39:17;;;;;;;2.55;1.40;;;;;;;14.42;100.00;99850.41;5072228;28;20028;-59
2023/05/10 07:41:42;;;;;;;2.20;1.38;;;;;;;14.52;100.00;99858.88;5072254;28;20547;-58
2023/05/10 07:44:07;;;;;;;4.43;1.33;;;;;;;14.54;100.00;99859.47;5072341;28;20041;-59
2023/05/10 07:46:33;;;;;;;1.90;1.10;;;;;;;14.58;100.00;99864.22;5072157;28;20041;-58
2023/05/10 07:48:58;;;;;;;2.72;1.50;;;;;;;14.60;100.00;99870.19;5071918;28;20050;-58
2023/05/10 07:51:24;;;;;;;1.48;1.00;;;;;;;14.82;100.00;99860.06;5072168;28;20501;-61
2023/05/10 07:53:49;;;;;;;2.60;1.10;;;;;;;14.91;100.00;99869.50;5072188;28;20036;-61
2023/05/10 07:56:31;;;;;;;2.70;1.08;;;;;;;14.93;100.00;99871.97;5070733;28;20040;-60
2023/05/10 07:58:58;;;;;;;2.08;1.20;;;;;;;14.85;100.00;99873.03;5071716;28;20044;-62
2023/05/10 08:01:23;;;;;;;2.90;1.55;;;;;;;14.90;100.00;99870.56;5075489;28;20024;-60
2023/05/10 08:03:50;;;;;;;1.27;1.00;;;;;;;15.01;100.00;99871.78;5072964;28;20127;-58
2023/05/10 08:06:17;;;;;;;2.63;1.15;;;;;;;15.16;100.00;99866.97;5072151;28;20025;-58
2023/05/10 08:08:43;;;;;;;2.87;1.07;;;;;;;15.11;100.00;99869.44;5071682;28;20036;-61
2023/05/10 08:11:08;;;;;;;2.40;0.95;;;;;;;14.94;100.00;99876.34;5071914;28;20828;-59
2023/05/10 08:13:34;;;;;;;1.83;0.90;;;;;;;14.91;100.00;99869.50;5072003;28;20401;-60
2023/05/10 08:16:00;;;;;;;1.95;1.20;;;;;;;14.87;100.00;99875.53;5071872;28;20112;-61
2023/05/10 08:18:25;;;;;;;2.92;1.10;;;;;;;14.86;100.00;99890.78;5071542;28;20078;-61
2023/05/10 08:20:51;;;;;;;2.60;1.33;;;;;;;14.90;100.00;99885.81;5071808;28;20098;-62
2023/05/10 08:23:16;;;;;;;0.90;0.80;;;;;;;15.02;100.00;99881.47;5071863;28;20036;-60
2023/05/10 08:25:42;;;;;;;1.23;1.02;;;;;;;15.15;100.00;99883.28;5053808;28;20566;-59
2023/05/10 08:28:07;;;;;;;3.05;1.27;;;;;;;15.28;100.00;99874.34;5071453;28;20047;-57
2023/05/10 08:30:32;;;;;;;2.28;1.02;;;;;;;15.40;100.00;99886.06;5071742;28;20045;-58
2023/05/10 08:32:58;;;;;;;1.05;0.95;;;;;;;15.56;100.00;99890.94;5068804;28;20060;-60
2023/05/10 08:35:24;;;;;;;1.23;0.95;;;;;;;15.55;98.48;99885.78;5061566;28;20044;-57
2023/05/10 08:37:51;;;;;;;2.25;1.00;;;;;;;15.57;99.23;99886.41;5059252;28;20028;-57
2023/05/10 08:40:19;;;;;;;1.38;0.82;;;;;;;15.74;99.95;99892.94;5051700;28;20060;-58
2023/05/10 08:43:04;;;;;;;0.70;0.68;;;;;;;15.87;98.33;99884.81;5051515;28;20115;-59
2023/05/10 08:45:32;;;;;;;0.93;0.73;;;;;;;15.96;96.56;99888.88;5051600;28;20033;-59
2023/05/10 08:48:01;;;;;;;1.27;0.80;;;;;;;15.96;94.81;99891.56;5051254;28;20032;-58
2023/05/10 08:50:27;;;;;;;2.10;0.80;;;;;;;15.93;91.45;99901.94;5050479;28;20037;-58
2023/05/10 08:52:57;;;;;;;2.90;0.88;;;;;;;16.02;91.54;99888.00;5051497;28;20037;-59
2023/05/10 08:55:24;;;;;;;2.10;0.90;;;;;;;16.17;92.89;99900.31;5051479;28;20073;-58
2023/05/10 08:57:49;;;;;;;1.50;1.10;;;;;;;16.15;91.84;99899.72;5051122;28;20032;-59
2023/05/10 09:00:16;;;;;;;1.13;0.75;;;;;;;16.25;93.45;99905.44;5051536;28;20283;-59
2023/05/10 09:02:42;;;;;;;1.77;1.25;;;;;;;16.13;90.89;99905.31;5051415;28;20037;-59
2023/05/10 09:05:09;;;;;;;0.88;0.73;;;;;;;16.01;93.00;99905.16;5051334;28;20037;-59
2023/05/10 09:07:35;;;;;;;0.97;0.87;;;;;;;16.09;93.61;99890.66;5051919;28;20044;-59
2023/05/10 09:10:00;;;;;;;1.27;0.93;;;;;;;16.10;95.32;99905.72;5055170;28;20287;-59
2023/05/10 09:12:27;;;;;;;1.88;1.08;;;;;;;15.94;90.15;99915.13;5062929;28;20473;-58
2023/05/10 09:14:54;;;;;;;1.33;0.80;;;;;;;15.81;91.75;99911.72;5074999;28;20036;-61
2023/05/10 09:17:20;;;;;;;1.92;0.88;;;;;;;15.76;92.40;99909.66;5074670;28;20060;-59
2023/05/10 09:19:45;;;;;;;0.98;0.88;;;;;;;15.81;92.37;99920.59;5074873;28;20102;-58
2023/05/10 09:22:11;;;;;;;1.33;1.00;;;;;;;15.74;93.82;99926.00;5074862;28;20037;-58
2023/05/10 09:24:42;;;;;;;1.58;1.20;;;;;;;15.51;92.25;99932.88;5074857;28;20044;-62
2023/05/10 09:27:07;;;;;;;0.70;0.70;;;;;;;15.42;90.02;99930.44;5074538;28;20036;-60
2023/05/10 09:29:40;;;;;;;0.60;0.60;;;;;;;15.33;94.03;99928.22;5074697;28;20090;-61
2023/05/10 09:32:05;;;;;;;1.00;0.70;;;;;;;15.12;92.01;99937.34;5075159;28;20072;-61
2023/05/10 09:34:34;;;;;;;1.00;0.70;;;;;;;14.85;92.82;99937.38;5074609;28;20450;-59
2023/05/10 09:37:02;;;;;;;1.10;0.60;;;;;;;14.83;93.14;99941.31;5074511;28;20386;-61
2023/05/10 09:39:36;;;;;;;1.20;0.70;;;;;;;14.87;94.50;99942.56;5074513;28;20490;-59
2023/05/10 09:42:03;;;;;;;1.48;0.75;;;;;;;14.80;94.14;99944.41;5074573;28;20115;-60
2023/05/10 09:44:30;;;;;;;1.10;0.88;;;;;;;14.70;93.31;99949.38;5074447;28;20025;-62
2023/05/10 09:46:55;;;;;;;2.00;1.05;;;;;;;14.63;93.65;99949.38;5074285;28;20393;-60
2023/05/10 09:49:22;;;;;;;4.60;0.93;;;;;;;14.80;94.86;99949.75;5074324;28;20036;-62
2023/05/10 09:51:47;;;;;;;2.10;0.80;;;;;;;14.82;93.97;99948.53;5074325;28;20036;-63
2023/05/10 09:54:16;;;;;;;1.60;0.85;;;;;;;15.04;95.60;99953.66;5074254;28;20040;-62
2023/05/10 09:56:42;;;;;;;1.35;1.13;;;;;;;15.26;93.60;99956.91;5074227;28;20081;-60
2023/05/10 09:59:11;;;;;;;1.10;0.82;;;;;;;15.41;92.32;99947.59;5073972;28;20036;-60
2023/05/10 10:01:38;;;;;;;1.38;1.13;;;;;;;15.56;90.65;99954.53;5074281;28;20036;-60
2023/05/10 10:04:07;;;;;;;2.05;1.20;;;;;;;16.02;93.45;99952.47;5074153;28;20040;-61
2023/05/10 10:06:41;;;;;;;0.95;0.80;;;;;;;16.23;93.54;99945.13;5074101;28;20101;-60
2023/05/10 10:09:07;;;;;;;1.90;0.95;;;;;;;16.25;92.45;99948.44;5073892;28;20448;-56
2023/05/10 10:11:37;;;;;;;1.10;1.00;;;;;;;16.03;91.92;99947.94;5074004;28;20476;-57
2023/05/10 10:14:02;;;;;;;4.05;1.42;;;;;;;16.13;93.84;99955.53;5074058;28;20166;-59
2023/05/10 10:16:31;;;;;;;1.40;1.27;;;;;;;15.92;93.39;99959.38;5073816;28;20478;-62
2023/05/10 10:18:57;;;;;;;1.55;1.00;;;;;;;15.90;94.39;99956.06;5073536;28;20037;-59
2023/05/10 10:21:23;;;;;;;2.60;1.10;;;;;;;15.80;95.35;99956.53;5073781;28;20388;-59
2023/05/10 10:23:49;;;;;;;1.17;0.85;;;;;;;15.85;96.90;99954.03;5073822;28;20032;-60
2023/05/10 10:26:17;;;;;;;1.67;1.10;;;;;;;15.86;87.73;99966.44;5073614;28;20568;-58
2023/05/10 10:29:21;;;;;;;4.53;1.02;;;;;;;15.90;83.15;99962.25;5073428;28;20029;-59
2023/05/10 10:32:06;;;;;;;1.23;1.00;;;;;;;15.93;80.89;99959.16;5073456;28;20041;-58
2023/05/10 10:34:32;;;;;;;1.52;1.10;;;;;;;16.07;76.82;99967.97;5073574;28;20032;-59
2023/05/10 10:37:03;;;;;;;2.22;1.30;;;;;;;16.66;78.09;99964.03;5073205;28;20024;-60
2023/05/10 10:39:29;;;;;;;3.35;1.25;;;;;;;16.98;75.10;99970.19;5073076;28;20037;-61
2023/05/10 10:41:58;;;;;;;1.85;1.20;;;;;;;17.20;74.56;99967.88;5073351;28;20500;-62
2023/05/10 10:44:26;;;;;;;2.45;1.10;;;;;;;17.33;74.16;99970.44;5073442;28;20039;-60
2023/05/10 10:47:00;;;;;;;2.00;1.17;;;;;;;17.61;71.65;99959.16;5073078;28;20386;-60
2023/05/10 10:49:26;;;;;;;2.05;1.45;;;;;;;18.02;76.46;99968.38;5073326;28;20030;-60
2023/05/10 10:52:32;;;;;;;3.30;1.77;;;;;;;17.94;72.06;99965.19;5073165;28;20539;-63
2023/05/10 10:55:14;;;;;;;3.92;1.60;;;;;;;17.55;70.98;99970.00;5042756;28;20500;-60
2023/05/10 10:58:02;;;;;;;2.45;1.42;;;;;;;17.23;73.31;99964.78;5073004;28;20036;-59
2023/05/10 11:00:30;;;;;;;3.60;1.70;;;;;;;17.11;72.98;99969.25;5073144;28;20131;-60
2023/05/10 11:03:04;;;;;;;1.50;1.00;;;;;;;17.18;75.33;99963.78;5072879;28;20040;-60
2023/05/10 11:05:42;;;;;;;2.15;1.55;;;;;;;17.14;70.95;99973.34;5073044;28;20146;-60
2023/05/10 11:08:26;;;;;;;2.40;1.08;;;;;;;17.07;70.83;99959.94;5072518;28;20405;-57
2023/05/10 11:11:03;;;;;;;1.70;1.10;;;;;;;16.98;72.06;99966.69;5072858;28;20032;-59
2023/05/10 11:13:32;;;;;;;2.33;1.10;;;;;;;17.04;72.92;99960.41;5072856;28;20028;-57
2023/05/10 11:15:58;;;;;;;1.38;1.15;;;;;;;17.12;72.91;99964.69;5071419;28;20417;-60
2023/05/10 11:18:28;;;;;;;1.00;0.93;;;;;;;16.95;72.01;99965.28;5072451;28;20079;-55
2023/05/10 11:21:06;;;;;;;2.10;1.13;;;;;;;16.85;74.35;99974.88;5072695;28;20064;-61
2023/05/10 11:23:48;;;;;;;1.50;1.20;;;;;;;16.87;76.64;99970.09;5072543;28;20033;-58
2023/05/10 11:26:14;;;;;;;1.25;1.15;;;;;;;16.78;75.33;99962.31;5072656;28;20067;-59
2023/05/10 11:28:47;;;;;;;2.38;1.38;;;;;;;16.62;78.98;99964.69;5072215;28;20020;-58
2023/05/10 11:31:19;;;;;;;2.70;1.13;;;;;;;16.38;75.47;99956.41;5071927;28;20086;-60
2023/05/10 11:33:55;;;;;;;1.13;0.98;;;;;;;16.26;77.90;99955.44;5072524;28;20040;-60
2023/05/10 11:36:23;;;;;;;1.08;0.93;;;;;;;16.21;77.64;99966.00;5072468;28;20031;-58
2023/05/10 11:38:49;;;;;;;2.58;0.90;;;;;;;16.05;79.69;99969.22;5071964;28;20115;-58
2023/05/10 11:41:16;;;;;;;1.13;0.98;;;;;;;16.06;79.40;99958.25;5072161;28;20060;-59
2023/05/10 11:43:42;;;;;;;1.45;1.25;;;;;;;16.13;82.26;99963.59;5072265;28;20025;-60
2023/05/10 11:46:10;;;;;;;2.70;1.40;;;;;;;16.13;77.07;99966.28;5072130;28;20040;-59
2023/05/10 11:48:38;;;;;;;2.25;1.05;;;;;;;16.12;74.97;99970.00;5071944;28;20044;-60
2023/05/10 11:51:03;;;;;;;;;;;;;;;16.05;77.80;99969.22;5072604;28;20429;-58
2023/05/10 11:53:32;;;;;;;1.50;0.65;;;;;;;16.04;74.41;99962.19;5070754;28;19971;-62
2023/05/10 11:56:07;;;;;;;2.75;0.85;;;;;;;16.11;73.91;99963.81;5072013;28;20493;-60
2023/05/10 11:58:33;;;;;;;0.93;0.82;;;;;;;16.13;72.93;99969.78;5071779;28;20075;-59
2023/05/10 12:01:03;;;;;;;2.08;0.77;;;;;;;16.25;72.18;99965.38;5071971;28;20036;-60
2023/05/10 12:03:29;;;;;;;2.45;0.63;;;;;;;16.46;71.36;99971.44;5072078;28;20029;-59
2023/05/10 12:05:56;;;;;;;0.43;0.43;;;;;;;17.02;67.69;99975.97;5070698;28;20047;-59
2023/05/10 12:08:24;;;;;;;3.40;0.65;;;;;;;17.69;65.14;99976.88;5071576;28;20040;-58
2023/05/10 12:10:49;;;;;;;0.65;0.45;;;;;;;17.81;64.35;99974.28;5071917;28;20040;-58
2023/05/10 12:13:15;;;;;;;0.43;0.43;;;;;;;18.03;60.23;99978.13;5071899;28;20150;-60
2023/05/10 12:15:42;;;;;;;0.93;0.57;;;;;;;18.29;61.32;99962.63;5071737;28;20075;-58
2023/05/10 12:18:10;;;;;;;0.57;0.57;;;;;;;18.47;60.57;99961.72;5071694;28;20553;-59
2023/05/10 12:20:36;;;;;;;0.45;0.45;;;;;;;18.74;60.30;99970.25;5071632;28;20059;-59
2023/05/10 12:23:03;;;;;;;0.75;0.63;;;;;;;18.66;58.76;99972.22;5071807;28;20103;-58
2023/05/10 12:25:36;;;;;;;0.30;0.30;;;;;;;18.62;57.17;99970.19;5071726;28;20075;-59
2023/05/10 12:28:07;;;;;;;0.40;0.40;;;;;;;18.53;60.15;99977.81;5061390;28;20123;-62
2023/05/10 12:30:34;;;;;;;0.52;0.52;;;;;;;18.36;58.73;99971.41;5065036;28;20055;-61
2023/05/10 12:33:18;;;;;;;1.48;0.60;;;;;;;18.28;59.49;99975.28;5065848;28;20036;-60
2023/05/10 12:35:49;;;;;;;0.68;0.50;;;;;;;18.38;58.65;99969.31;5071736;28;20041;-58
2023/05/10 12:38:37;;;;;;;1.70;0.70;;;;;;;18.37;56.52;99970.38;5069493;28;20036;-60
2023/05/10 12:41:05;;;;;;;1.23;0.73;;;;;;;18.40;55.02;99964.53;5062221;28;20062;-60
2023/05/10 12:43:32;;;;;;;1.75;0.73;;;;;;;18.60;55.96;99969.59;5063207;28;20055;-60
2023/05/10 12:45:57;;;;;;;0.88;0.77;;;;;;;18.72;56.61;99973.19;5064858;28;20024;-62
2023/05/10 12:48:23;;;;;;;0.82;0.70;;;;;;;18.82;54.18;99970.69;5066058;28;20039;-60
2023/05/10 12:50:48;;;;;;;0.60;0.50;;;;;;;19.15;53.05;99961.19;5064156;28;20068;-60
2023/05/10 12:53:17;;;;;;;0.90;0.80;;;;;;;18.89;53.77;99970.59;5065384;28;20044;-58
2023/05/10 12:55:43;;;;;;;0.80;0.80;;;;;;;18.83;53.37;99963.44;5065975;28;20028;-58
2023/05/10 12:58:09;;;;;;;0.70;0.65;;;;;;;19.19;54.01;99965.91;5065515;28;20033;-61
2023/05/10 13:00:34;;;;;;;0.60;0.60;;;;;;;19.29;54.59;99967.16;5065210;28;20033;-59
2023/05/10 13:03:00;;;;;;;3.20;0.70;;;;;;;19.39;54.29;99962.00;5064354;28;20127;-61
2023/05/10 13:05:25;;;;;;;0.70;0.63;;;;;;;19.37;53.63;99969.53;5065708;28;20028;-58
2023/05/10 13:07:51;;;;;;;1.05;0.73;;;;;;;19.12;55.42;99961.69;5064026;28;20384;-59
2023/05/10 13:10:16;;;;;;;2.05;0.98;;;;;;;19.12;53.36;99957.09;5046876;28;20033;-60
2023/05/10 13:12:42;;;;;;;1.00;0.85;;;;;;;19.16;55.76;99960.94;5065534;28;20037;-59
2023/05/10 13:15:07;;;;;;;1.65;0.60;;;;;;;18.85;52.71;99967.56;5065788;28;20058;-60
2023/05/10 13:17:33;;;;;;;0.90;0.47;;;;;;;19.06;50.86;99955.34;5063822;28;20044;-56
2023/05/10 13:19:58;;;;;;;2.28;0.50;;;;;;;18.89;52.27;99959.78;5063269;28;20036;-56
2023/05/10 13:22:24;;;;;;;0.70;0.60;;;;;;;19.03;50.54;99954.97;5065418;28;20060;-59
2023/05/10 13:24:49;;;;;;;1.08;0.60;;;;;;;18.77;50.23;99962.47;5057545;28;20048;-57
2023/05/10 13:27:15;;;;;;;0.40;0.40;;;;;;;18.80;51.03;99947.72;5054493;28;20122;-58
2023/05/10 13:29:40;;;;;;;0.90;0.60;;;;;;;18.82;52.19;99949.13;5054800;28;20044;-59
2023/05/10 13:32:06;;;;;;;0.57;0.57;;;;;;;18.84;51.92;99946.19;5054805;28;20033;-54
2023/05/10 13:34:31;;;;;;;0.50;0.50;;;;;;;18.52;52.17;99951.03;5054611;28;20036;-58
2023/05/10 13:36:57;;;;;;;0.82;0.60;;;;;;;18.66;53.89;99950.66;5054335;28;20401;-59
2023/05/10 13:39:22;;;;;;;0.63;0.60;;;;;;;18.68;51.54;99951.22;5054434;28;20104;-59
2023/05/10 13:41:48;;;;;;;0.80;0.75;;;;;;;18.78;53.60;99963.31;5054630;28;20078;-54
2023/05/10 13:44:14;;;;;;;0.70;0.70;;;;;;;18.85;52.82;99948.66;5054413;28;20041;-56
2023/05/10 13:46:41;;;;;;;0.50;0.50;;;;;;;18.68;52.16;99956.63;5054111;28;20048;-59
2023/05/10 13:49:06;;;;;;;1.73;0.53;;;;;;;18.56;51.73;99950.34;5053942;28;20132;-58
2023/05/10 13:51:33;;;;;;;2.22;1.10;;;;;;;18.52;52.67;99948.34;5054422;28;20116;-54
2023/05/10 13:53:59;;;;;;;0.55;0.50;;;;;;;18.38;53.49;99943.16;5053842;28;20037;-62
2023/05/10 13:56:24;;;;;;;2.47;1.45;;;;;;;18.26;54.43;99938.81;5054283;28;20037;-58
2023/05/10 13:58:49;;;;;;;2.65;0.82;;;;;;;18.19;53.53;99938.91;5054013;28;20508;-60
2023/05/10 14:01:15;;;;;;;0.82;0.55;;;;;;;17.95;54.60;99945.28;5054178;28;20490;-62
2023/05/10 14:03:40;;;;;;;1.40;0.57;;;;;;;17.86;55.27;99940.19;5054192;28;20040;-60
2023/05/10 14:06:07;;;;;;;0.60;0.35;;;;;;;17.69;55.69;99939.16;5054156;28;20367;-62
2023/05/10 14:08:33;;;;;;;0.50;0.50;;;;;;;17.50;54.63;99929.47;5053792;28;20041;-61
2023/05/10 14:10:58;;;;;;;0.68;0.52;;;;;;;17.25;54.78;99938.44;5053892;28;20041;-59
2023/05/10 14:13:24;;;;;;;0.60;0.45;;;;;;;17.12;55.42;99937.78;5053906;28;20039;-62
2023/05/10 14:15:50;;;;;;;0.63;0.63;;;;;;;17.07;55.44;99938.44;5053874;28;20045;-63
2023/05/10 14:18:15;;;;;;;1.90;0.70;;;;;;;16.92;57.13;99933.41;5053614;28;20051;-61
2023/05/10 14:20:40;;;;;;;0.50;0.50;;;;;;;16.89;58.32;99933.88;5053706;28;20033;-60
2023/05/10 14:23:06;;;;;;;0.60;0.50;;;;;;;16.83;59.85;99931.25;5053981;28;20047;-62
2023/05/10 14:25:31;;;;;;;1.20;0.50;;;;;;;16.79;60.42;99933.53;5053746;28;20051;-61
2023/05/10 14:27:57;;;;;;;0.52;0.50;;;;;;;16.88;58.97;99937.56;5053390;28;20379;-61
2023/05/10 14:30:22;;;;;;;0.68;0.57;;;;;;;16.93;60.54;99935.06;5053663;28;20500;-63
2023/05/10 14:32:47;;;;;;;0.43;0.43;;;;;;;16.99;58.75;99922.59;5053581;28;20045;-60
2023/05/10 14:35:13;;;;;;;0.35;0.35;;;;;;;17.11;57.45;99933.44;5053458;28;20036;-60
2023/05/10 14:37:38;;;;;;;0.88;0.60;;;;;;;17.40;56.58;99929.16;5053282;28;20036;-61
2023/05/10 14:40:04;;;;;;;0.57;0.40;;;;;;;17.58;55.65;99921.88;5053539;28;20052;-60
2023/05/10 14:42:31;;;;;;;1.00;0.80;;;;;;;17.81;57.48;99915.84;5053501;28;20642;-61
2023/05/10 14:44:56;;;;;;;0.30;0.30;;;;;;;18.07;56.90;99916.50;5053484;28;20040;-63
2023/05/10 14:47:21;;;;;;;1.33;0.60;;;;;;;18.01;54.85;99920.13;5052975;28;20056;-59
2023/05/10 14:49:47;;;;;;;1.10;0.40;;;;;;;18.02;54.35;99921.75;5053288;28;20033;-61
2023/05/10 14:52:14;;;;;;;2.55;0.70;;;;;;;17.99;55.43;99923.03;5053223;28;20501;-62
2023/05/10 14:54:40;;;;;;;0.40;0.40;;;;;;;18.01;57.10;99923.63;5053203;28;20385;-60
2023/05/10 14:57:06;;;;;;;0.50;0.50;;;;;;;18.13;56.79;99920.97;5052709;28;20110;-65
2023/05/10 14:59:31;;;;;;;0.40;0.40;;;;;;;17.94;55.37;99908.63;5053127;28;20056;-60
2023/05/10 15:01:57;;;;;;;1.38;0.60;;;;;;;17.90;54.94;99921.72;5052951;28;20025;-63
2023/05/10 15:04:22;;;;;;;0.40;0.40;;;;;;;18.04;55.52;99914.25;5052992;28;20394;-59
2023/05/10 15:06:47;;;;;;;0.52;0.30;;;;;;;17.91;54.06;99915.28;5052150;28;20029;-61
2023/05/10 15:09:13;;;;;;;0.50;0.40;;;;;;;17.82;53.43;99919.34;5052854;28;20041;-63
2023/05/10 15:11:41;;;;;;;0.50;0.50;;;;;;;17.68;54.05;99925.94;5052729;28;20048;-58
2023/05/10 15:14:07;;;;;;;0.52;0.52;;;;;;;17.73;55.77;99928.78;5052936;28;20037;-61
2023/05/10 15:16:32;;;;;;;1.15;0.43;;;;;;;17.75;56.46;99926.69;5052734;28;20040;-61
2023/05/10 15:18:57;;;;;;;0.60;0.60;;;;;;;17.68;58.41;99928.63;5052492;28;20043;-62
2023/05/10 15:21:23;;;;;;;0.43;0.40;;;;;;;17.45;56.77;99924.75;5051459;28;20055;-59
2023/05/10 15:23:48;;;;;;;0.82;0.52;;;;;;;17.47;58.01;99930.72;5052742;28;20052;-58
2023/05/10 15:26:14;;;;;;;0.35;0.35;;;;;;;17.28;58.30;99921.03;5052578;28;20080;-59
2023/05/10 15:28:39;;;;;;;0.75;0.40;;;;;;;17.11;59.51;99926.19;5052356;28;20041;-60
2023/05/10 15:31:05;;;;;;;0.30;0.30;;;;;;;17.09;61.23;99933.66;5052471;28;20044;-62
2023/05/10 15:33:30;;;;;;;0.93;0.40;;;;;;;17.00;60.53;99927.72;5052409;28;20036;-59
2023/05/10 15:35:55;;;;;;;0.30;0.30;;;;;;;16.89;62.27;99936.56;5052392;28;20036;-61
2023/05/10 15:38:21;;;;;;;0.40;0.40;;;;;;;16.89;61.48;99936.56;5052226;28;20048;-61
2023/05/10 15:40:46;;;;;;;0.85;0.50;;;;;;;16.89;62.82;99936.56;5052292;28;20104;-64
2023/05/10 15:43:12;;;;;;;0.63;0.43;;;;;;;16.91;63.51;99937.16;5052368;28;20063;-65
2023/05/10 15:45:37;;;;;;;0.40;0.40;;;;;;;16.81;62.30;99939.50;5052381;28;20601;-59
2023/05/10 15:48:03;;;;;;;1.30;0.35;;;;;;;16.76;62.99;99939.38;5051958;28;20075;-59
2023/05/10 15:50:28;;;;;;;1.20;0.50;;;;;;;16.65;64.01;99934.69;5052364;28;20033;-61
2023/05/10 15:52:54;;;;;;;0.20;0.20;;;;;;;16.57;65.60;99943.03;5052152;28;20036;-63